ESNS

Skellefteå Airport

Skellefteå, Sweden
TAF ESNS 202030Z 2021/2023 26003KT CAVOK
Issued Valid From Valid To
Jan-20 @ 20:30 UTC
(2 hours ago)
Jan-20 @ 21:00 UTC
(an hour ago)
Jan-20 @ 23:00 UTC
(in 59 minutes)
Jan-20 @ 21:00 to Jan-20 @ 23:00
TAF ESNS 202030Z 2021/2023 26003KT CAVOK
Wind Visibility Clouds Conditions
260° at 3 knots 10,000+ meters
  • No significant clouds
TAF ESNS 202030Z 2021/2023 26003KT CAVOK
Issued Jan-20 @ 20:30 UTC
(2 hours ago)
Valid From Jan-20 @ 21:00 UTC
(an hour ago)
Valid To Jan-20 @ 23:00 UTC
(in 59 minutes)
Jan-20 @ 21:00 - Jan-20 @ 23:00
Wind Visibility
260° at 3 knots 10,000+ meters
Clouds
  • No significant clouds
Conditions